Terminal Aerodrome Forecast
Issued by NWS Grand Forks, ND

Home | Current Version | Previous Version | Text Only | Print | Product List | Glossary Off
Versions: 1 2 3 4 5 6 7 8 9 10 11 12 13 14 15 16 17 18

000
FTUS43 KFGF 150500
TAFFAR
TAF
KFAR 150521Z 1506/1606 33015KT 3SM BR OVC005
      TEMPO 1506/1510 -SN
     FM151200 34020KT P6SM OVC005
     FM152000 35024G30KT P6SM BKN025
     FM160100 34018KT P6SM BKN030=

USA.gov is the U.S. government's official web portal to all federal, state and local government web resources and services.